Wind EuroAirport

Messzeit Windrichtung Windgeschwindigkeit [Knoten] Rückenwind Nordpiste [Knoten] METAR
2018-02-22 07:30 var 360° 8 8 LFSB 220630Z 36008KT 5000 FEW046 M03/M06 Q1013 TEMPO 4000 BR
2018-02-22 07:00 var 360° 10 9 LFSB 220600Z 36010KT 7000 FEW046 M03/M06 Q1013 TEMPO 4000 BR
2018-02-22 06:30 N 350° 10 10 LFSB 220530Z 35010KT 7000 FEW043 M03/M06 Q1013 TEMPO 4000 BR
2018-02-22 06:00 N 350° 8 8 LFSB 220500Z 35008KT 7000 FEW050 M03/M05 Q1013 TEMPO 4000 BR
2018-02-22 05:30 N 350° 8 8 LFSB 220430Z 35008KT 7000 FEW050 M03/M05 Q1013 TEMPO 5000 BR
2018-02-22 05:00 var 360°
(330°–30°)
7 4–7 LFSB 220400Z 36007KT 330V030 7000 FEW050 M03/M05 Q1013 TEMPO 5000 BR
2018-02-22 04:30 N 20°
(350°–50°)
7 2–7 LFSB 220330Z 02007KT 350V050 7000 FEW050 M02/M05 Q1013 TEMPO 5000 BR
2018-02-22 04:00 N 20° 9 7 LFSB 220300Z AUTO 02009KT 8000 FEW052 M02/M05 Q1013 TEMPO 4000 BR BKN010
2018-02-22 03:00 var 360° 12 11 LFSB 220200Z AUTO 36012KT 8000 BKN043 BKN049 M01/M05 Q1014 TEMPO 4000 BR BKN010
2018-02-22 02:30 N 10°
(340°–40°)
7 4–7 LFSB 220130Z AUTO 01007KT 340V040 8000 OVC047 M01/M05 Q1014 TEMPO 4000 BR BKN010
2018-02-22 02:00 var 360° 7 7 LFSB 220100Z AUTO 36007KT 8000 BKN048 M01/M05 Q1014 TEMPO 4000 BR BKN010
2018-02-22 01:30 var 360° 5 5 LFSB 220030Z AUTO 36005KT 8000 NSC M02/M05 Q1014 TEMPO 4000 BR BKN010
2018-02-22 01:00 N 20°
(310°–80°)
4 0–4 LFSB 220000Z AUTO 02004KT 310V080 7000 NSC M01/M05 Q1015 TEMPO 4000 BR BKN010
2018-02-22 00:30 N 10°
(340°–50°)
5 2–5 LFSB 212330Z AUTO 01005KT 340V050 7000 NSC M01/M05 Q1015 NOSIG
2018-02-22 00:00 N 350° 7 7 LFSB 212300Z 35007KT 7000 SCT050 M01/M05 Q1015 NOSIG
2018-02-21 23:30 N 350° 4 4 LFSB 212230Z 35004KT 7000 SCT050 M01/M05 Q1015 NOSIG
2018-02-21 23:00 - 3 - LFSB 212200Z VRB03KT 7000 SCT050 M01/M05 Q1016 NOSIG
2018-02-21 22:30 N 350° 4 4 LFSB 212130Z 35004KT 7000 FEW046 SCT060 M01/M05 Q1016 NOSIG
2018-02-21 22:00 N 20° 5 4 LFSB 212100Z 02005KT 7000 SCT046 BKN060 00/M04 Q1016 NOSIG
2018-02-21 21:30 NO 30°
(360°–60°)
5 1–5 LFSB 212030Z 03005KT 360V060 7000 SCT046 BKN060 01/M04 Q1016 NOSIG
2018-02-21 21:00 N 20°
(350°–50°)
8 3–8 LFSB 212000Z 02008KT 350V050 9000 BKN046 SCT240 01/M05 Q1016 NOSIG
2018-02-21 20:30 N 20°
(350°–70°)
7 0–7 LFSB 211930Z 02007KT 350V070 9000 BKN046 BKN240 01/M05 Q1016 NOSIG
2018-02-21 20:00 N 20° 7 5 LFSB 211900Z 02007KT 9000 SCT046 SCT060 BKN240 01/M05 Q1016 NOSIG
2018-02-21 19:30 N 10° 7 6 LFSB 211830Z 01007KT 9000 SCT043 SCT060 BKN240 01/M05 Q1016 NOSIG
2018-02-21 19:00 N 20°
(350°–50°)
9 3–9 LFSB 211800Z 02009KT 350V050 9000 SCT043 SCT060 BKN240 02/M05 Q1016 NOSIG
2018-02-21 18:30 NO 30°
(360°–80°)
7 0–7 LFSB 211730Z 03007KT 360V080 9000 BKN043 SCT060 BKN240 02/M05 Q1016 NOSIG
2018-02-21 18:00 N 20°
(330°–60°)
8 1–8 LFSB 211700Z 02008KT 330V060 9000 BKN046 SCT250 03/M05 Q1016 NOSIG
2018-02-21 17:30 N 10° 8 7 LFSB 211630Z 01008KT 9000 FEW040 SCT053 03/M04 Q1016 NOSIG
2018-02-21 17:00 N 10° 11 10 LFSB 211600Z 01011KT 9999 FEW025 SCT040 03/M04 Q1015 NOSIG
2018-02-21 16:30 N 10° 12 10 LFSB 211530Z 01012KT 9999 FEW025 SCT040 03/M05 Q1015 NOSIG
2018-02-21 16:00 N 10°
(350°–50°)
13 4–13 LFSB 211500Z 01013KT 350V050 9999 FEW025 SCT040 03/M04 Q1015 NOSIG
2018-02-21 15:30 N 10° 13 11 LFSB 211430Z 01013KT 9999 FEW025 SCT040 03/M04 Q1015 TEMPO 02013G23KT
2018-02-21 15:00 N 20° 12 9 LFSB 211400Z 02012KT 9999 FEW025 SCT040 04/M04 Q1015 TEMPO 02013G23KT
2018-02-21 14:30 N 10°
(340°–40°)
12 6–12 LFSB 211330Z 01012KT 340V040 9999 FEW020 BKN036 03/M05 Q1016 TEMPO 02015G25KT
2018-02-21 14:00 N 20°
(350°–50°)
12 4–12 LFSB 211300Z 02012KT 350V050 9999 FEW020 BKN033 03/M04 Q1016 TEMPO 02015G25KT
2018-02-21 13:30 N 20° 13 10 LFSB 211230Z 02013KT 9999 FEW020 SCT033 03/M04 Q1016 TEMPO 02015G25KT
2018-02-21 13:00 N 10° 14 12 LFSB 211200Z 01014KT 9999 FEW020 BKN031 03/M04 Q1017 TEMPO 02015G25KT
2018-02-21 12:30 N 10°
(340°–40°)
13 7–13 LFSB 211130Z 01013KT 340V040 9999 FEW020 BKN033 03/M04 Q1017 TEMPO 02015G25KT
2018-02-21 12:00 N 10°
(340°–40°)
11 6–11 LFSB 211100Z 01011KT 340V040 9999 FEW020 BKN033 02/M04 Q1017 NOSIG
2018-02-21 11:30 N 10°
(340°–40°)
7 4–7 LFSB 211030Z 01007KT 340V040 9999 FEW020 BKN033 02/M05 Q1017 NOSIG
2018-02-21 11:00 N 10°
(330°–80°)
5 0–5 LFSB 211000Z 01005KT 330V080 9999 FEW025 BKN036 02/M04 Q1017 NOSIG
2018-02-21 10:30 N 10°
(340°–50°)
9 3–9 LFSB 210930Z 01009KT 340V050 8000 FEW020 SCT036 01/M04 Q1017 NOSIG
2018-02-21 10:00 var 360°
(330°–40°)
10 5–10 LFSB 210900Z 36010KT 330V040 9000 FEW020 01/M04 Q1017 NOSIG
2018-02-21 09:30 var 360°
(330°–30°)
8 5–8 LFSB 210830Z 36008KT 330V030 9000 FEW040 00/M04 Q1017 NOSIG
2018-02-21 09:00 N 350° 7 7 LFSB 210800Z 35007KT 8000 FEW026 SCT046 M00/M04 Q1017 NOSIG
2018-02-21 08:30 N 350° 8 8 LFSB 210730Z 35008KT 9000 BKN040 M01/M04 Q1017 NOSIG